createdAt,value
2018-02-09T00:01:36.641Z,101407.08
2018-02-09T00:04:04.985Z,101411.91
2018-02-09T00:06:33.333Z,101410.56
2018-02-09T00:09:02.489Z,101404.03
2018-02-09T00:11:30.901Z,101402.16
2018-02-09T00:13:59.257Z,101404.34
2018-02-09T00:16:28.360Z,101399.36
2018-02-09T00:18:57.506Z,101399.80
2018-02-09T00:21:25.897Z,101403.16
2018-02-09T00:23:54.260Z,101402.48
2018-02-09T00:26:22.641Z,101404.74
2018-02-09T00:28:50.984Z,101413.55
2018-02-09T00:31:19.365Z,101410.19
2018-02-09T00:33:48.570Z,101406.93
2018-02-09T00:36:16.912Z,101400.67
2018-02-09T00:38:46.097Z,101406.11
2018-02-09T00:41:14.435Z,101402.80
2018-02-09T00:43:42.781Z,101403.48
2018-02-09T00:46:11.902Z,101397.87
2018-02-09T00:48:41.013Z,101346.47
2018-02-09T00:51:09.425Z,101397.78
2018-02-09T00:53:37.773Z,101398.42
2018-02-09T00:56:06.121Z,101393.08
2018-02-09T00:58:34.503Z,101389.18
2018-02-09T01:01:02.965Z,101386.48
2018-02-09T01:03:31.304Z,101387.02
2018-02-09T01:05:59.640Z,101382.12
2018-02-09T01:08:28.000Z,101386.08
2018-02-09T01:10:56.341Z,101382.50
2018-02-09T01:13:24.728Z,101383.42
2018-02-09T01:15:53.093Z,101379.07
2018-02-09T01:18:22.224Z,101386.16
2018-02-09T01:20:50.993Z,101380.58
2018-02-09T01:23:19.349Z,101351.63
2018-02-09T01:25:47.712Z,101375.04
2018-02-09T01:28:16.053Z,101374.91
2018-02-09T01:30:44.453Z,101380.99
2018-02-09T01:33:12.808Z,101375.82
2018-02-09T01:35:41.196Z,101372.09
2018-02-09T01:38:09.580Z,101373.52
2018-02-09T01:40:37.977Z,101365.73
2018-02-09T01:43:06.320Z,101361.61
2018-02-09T01:45:34.700Z,101364.05
2018-02-09T01:48:03.104Z,101360.86
2018-02-09T01:50:31.505Z,101365.98
2018-02-09T01:52:59.888Z,101363.97
2018-02-09T01:55:28.284Z,101359.36
2018-02-09T01:57:56.672Z,101353.59
2018-02-09T02:00:25.830Z,101357.88
2018-02-09T02:02:54.202Z,101356.25
2018-02-09T02:05:22.564Z,101354.56
2018-02-09T02:07:50.928Z,101352.61
2018-02-09T02:10:19.302Z,101353.22
2018-02-09T02:12:47.644Z,101352.91
2018-02-09T02:15:16.012Z,101351.14
2018-02-09T02:17:44.356Z,101345.97
2018-02-09T02:20:12.744Z,101344.49
2018-02-09T02:22:41.106Z,101342.25
2018-02-09T02:25:09.476Z,101345.33
2018-02-09T02:27:37.846Z,101346.06
2018-02-09T02:30:06.190Z,101346.59
2018-02-09T02:35:41.559Z,101346.32
2018-02-09T02:38:10.704Z,101354.56
2018-02-09T02:40:39.100Z,101347.88
2018-02-09T02:43:07.480Z,101346.86
2018-02-09T02:45:35.899Z,101339.69
2018-02-09T02:48:05.276Z,101336.73
2018-02-09T02:50:33.628Z,101337.53
2018-02-09T02:53:01.976Z,101331.58
2018-02-09T02:55:30.368Z,101335.61
2018-02-09T02:57:58.711Z,101330.28
2018-02-09T03:00:27.852Z,101330.39
2018-02-09T03:02:56.204Z,101324.53
2018-02-09T03:05:24.560Z,101323.54
2018-02-09T03:07:53.684Z,101319.23
2018-02-09T03:10:22.073Z,101323.94
2018-02-09T03:12:50.404Z,101318.67
2018-02-09T03:15:18.748Z,101313.56
2018-02-09T03:17:47.128Z,101313.42
2018-02-09T03:20:15.480Z,101317.67
2018-02-09T03:22:43.863Z,101318.82
2018-02-09T03:25:12.318Z,101303.42
2018-02-09T03:27:40.700Z,101309.67
2018-02-09T03:30:09.036Z,101307.06
2018-02-09T03:32:37.395Z,101295.98
2018-02-09T03:35:05.776Z,101292.80
2018-02-09T03:37:34.165Z,101290.99
2018-02-09T03:40:02.541Z,101293.12
2018-02-09T03:42:30.920Z,101288.69
2018-02-09T03:44:59.308Z,101290.05
2018-02-09T03:50:06.800Z,101292.95
2018-02-09T03:52:35.179Z,101297.97
2018-02-09T03:55:03.559Z,101303.27
2018-02-09T03:57:31.955Z,101300.93
2018-02-09T04:00:00.299Z,101293.64
2018-02-09T04:02:28.669Z,101291.37
2018-02-09T04:04:58.191Z,101290.34
2018-02-09T04:07:26.543Z,101292.61
2018-02-09T04:09:54.939Z,101288.28
2018-02-09T04:12:23.291Z,101284.16
2018-02-09T04:14:51.671Z,101281.30
2018-02-09T04:17:20.060Z,101275.87
2018-02-09T04:19:48.448Z,101284.11
2018-02-09T04:22:17.631Z,101276.41
2018-02-09T04:24:46.019Z,101271.52
2018-02-09T04:27:14.391Z,101269.91
2018-02-09T04:29:42.763Z,101269.84
2018-02-09T04:32:11.137Z,101270.98
2018-02-09T04:34:39.512Z,101274.58
2018-02-09T04:37:07.864Z,101273.34
2018-02-09T04:39:37.027Z,101271.70
2018-02-09T04:42:05.391Z,101259.34
2018-02-09T04:44:33.775Z,101265.52
2018-02-09T04:47:02.127Z,101260.75
2018-02-09T04:49:30.487Z,101260.28
2018-02-09T04:51:58.826Z,101259.45
2018-02-09T04:54:27.210Z,101258.16
2018-02-09T04:56:55.567Z,101256.16
2018-02-09T04:59:23.910Z,101260.39
2018-02-09T05:01:52.291Z,101258.78
2018-02-09T05:04:20.662Z,101253.00
2018-02-09T05:06:49.023Z,101249.58
2018-02-09T05:09:18.187Z,101246.63
2018-02-09T05:11:46.532Z,101245.26
2018-02-09T05:14:14.924Z,101246.59
2018-02-09T05:16:43.291Z,101250.27
2018-02-09T05:19:11.655Z,101247.86
2018-02-09T05:21:40.179Z,101253.45
2018-02-09T05:24:08.971Z,101254.95
2018-02-09T05:26:37.319Z,101247.53
2018-02-09T05:29:05.694Z,101245.53
2018-02-09T05:31:34.319Z,101246.19
2018-02-09T05:34:02.659Z,101245.08
2018-02-09T05:36:31.030Z,101249.97
2018-02-09T05:39:00.162Z,101243.41
2018-02-09T05:41:28.563Z,101236.25
2018-02-09T05:43:57.742Z,101242.55
2018-02-09T05:46:26.094Z,101246.67
2018-02-09T05:48:54.442Z,101248.23
2018-02-09T05:51:22.816Z,101238.99
2018-02-09T05:53:52.348Z,101249.53
2018-02-09T05:56:21.855Z,101244.62
2018-02-09T05:58:50.228Z,101245.81
2018-02-09T06:01:18.602Z,101246.78
2018-02-09T06:03:47.731Z,101244.70
2018-02-09T06:06:16.117Z,101241.20
2018-02-09T06:08:44.462Z,101242.48
2018-02-09T06:11:12.818Z,101243.52
2018-02-09T06:13:41.180Z,101241.08
2018-02-09T06:16:09.523Z,101237.02
2018-02-09T06:18:37.886Z,101240.96
2018-02-09T06:21:06.242Z,101241.05
2018-02-09T06:23:34.609Z,101242.30
2018-02-09T06:26:02.962Z,101237.93
2018-02-09T06:28:32.098Z,101232.72
2018-02-09T06:31:00.426Z,101233.41
2018-02-09T06:33:28.778Z,101230.92
2018-02-09T06:35:57.146Z,101235.16
2018-02-09T06:38:25.482Z,101236.87
2018-02-09T06:40:53.867Z,101233.11
2018-02-09T06:43:22.201Z,101232.85
2018-02-09T06:45:50.574Z,101234.78
2018-02-09T06:48:18.910Z,101227.65
2018-02-09T06:50:47.298Z,101227.44
2018-02-09T06:53:15.948Z,101229.81
2018-02-09T06:55:44.358Z,101233.92
2018-02-09T06:58:12.738Z,101237.52
2018-02-09T07:00:41.071Z,101234.19
2018-02-09T07:03:10.222Z,101225.10
2018-02-09T07:05:38.581Z,101225.52
2018-02-09T07:08:06.979Z,101225.85
2018-02-09T07:10:35.329Z,101229.58
2018-02-09T07:13:03.706Z,101232.62
2018-02-09T07:15:32.322Z,101232.70
2018-02-09T07:18:00.702Z,101237.41
2018-02-09T07:20:29.017Z,101234.42
2018-02-09T07:22:57.459Z,101245.34
2018-02-09T07:25:25.786Z,101241.88
2018-02-09T07:27:54.146Z,101239.53
2018-02-09T07:30:23.250Z,101239.66
2018-02-09T07:32:51.649Z,101236.31
2018-02-09T07:35:19.998Z,101229.91
2018-02-09T07:37:49.147Z,101232.33
2018-02-09T07:40:17.477Z,101233.78
2018-02-09T07:42:46.575Z,101235.41
2018-02-09T07:45:15.718Z,101233.78
2018-02-09T07:47:44.059Z,101231.11
2018-02-09T07:50:13.188Z,101235.92
2018-02-09T07:52:41.531Z,101229.16
2018-02-09T07:55:10.709Z,101227.64
2018-02-09T07:57:39.043Z,101227.88
2018-02-09T08:00:07.417Z,101224.51
2018-02-09T08:02:35.818Z,101226.34
2018-02-09T08:05:04.185Z,101223.60
2018-02-09T08:07:32.518Z,101220.99
2018-02-09T08:10:00.926Z,101220.88
2018-02-09T08:12:29.290Z,101216.73
2018-02-09T08:14:57.653Z,101213.84
2018-02-09T08:17:26.061Z,101207.63
2018-02-09T08:19:54.407Z,101203.45
2018-02-09T08:22:23.515Z,101205.44
2018-02-09T08:24:53.404Z,101207.86
2018-02-09T08:27:22.519Z,101208.77
2018-02-09T08:29:50.846Z,101206.44
2018-02-09T08:32:19.212Z,101203.45
2018-02-09T08:34:47.565Z,101201.58
2018-02-09T08:37:15.949Z,101201.11
2018-02-09T08:39:44.509Z,101200.46
2018-02-09T08:42:12.886Z,101195.08
2018-02-09T08:44:41.281Z,101194.98
2018-02-09T08:47:09.900Z,101195.48
2018-02-09T08:49:38.262Z,101198.03
2018-02-09T08:52:06.633Z,101189.37
2018-02-09T08:54:34.992Z,101198.89
2018-02-09T08:57:03.337Z,101194.95
2018-02-09T08:59:31.697Z,101191.27
2018-02-09T09:02:00.066Z,101194.74
2018-02-09T09:04:28.394Z,101193.50
2018-02-09T09:06:56.765Z,101192.52
2018-02-09T09:09:25.497Z,101194.48
2018-02-09T09:11:53.888Z,101188.39
2018-02-09T09:14:22.229Z,101190.62
2018-02-09T09:16:51.356Z,101188.61
2018-02-09T09:19:19.685Z,101191.12
2018-02-09T09:21:48.828Z,101187.25
2018-02-09T09:24:17.169Z,101178.05
2018-02-09T09:26:45.508Z,101178.89
2018-02-09T09:29:13.877Z,101182.53
2018-02-09T09:31:47.632Z,101174.94
2018-02-09T09:34:16.028Z,101177.42
2018-02-09T09:36:45.173Z,101171.23
2018-02-09T09:39:13.593Z,101164.55
2018-02-09T09:41:41.945Z,101166.53
2018-02-09T09:44:11.105Z,101163.19
2018-02-09T09:46:39.472Z,101164.05
2018-02-09T09:49:07.798Z,101161.80
2018-02-09T09:51:36.160Z,101156.59
2018-02-09T09:54:05.246Z,101158.05
2018-02-09T09:56:33.603Z,101156.30
2018-02-09T09:59:01.935Z,101153.16
2018-02-09T10:01:31.083Z,101151.83
2018-02-09T10:03:59.447Z,101149.33
2018-02-09T10:06:27.793Z,101150.73
2018-02-09T10:08:56.135Z,101146.33
2018-02-09T10:11:24.480Z,101152.03
2018-02-09T10:13:52.803Z,101147.54
2018-02-09T10:16:22.680Z,101143.02
2018-02-09T10:18:51.011Z,101143.11
2018-02-09T10:21:19.359Z,101136.78
2018-02-09T10:23:47.695Z,101130.54
2018-02-09T10:26:16.090Z,101125.78
2018-02-09T10:28:44.394Z,101123.55
2018-02-09T10:31:12.707Z,101134.22
2018-02-09T10:33:41.081Z,101128.56
2018-02-09T10:36:09.394Z,101127.21
2018-02-09T10:38:37.730Z,101118.39
2018-02-09T10:41:06.062Z,101119.98
2018-02-09T10:43:34.474Z,101114.98
2018-02-09T10:46:02.801Z,101110.19
2018-02-09T10:48:31.179Z,101106.73
2018-02-09T10:50:59.506Z,101101.78
2018-02-09T10:53:28.663Z,101105.69
2018-02-09T10:55:57.009Z,101103.00
2018-02-09T10:58:25.323Z,101094.07
2018-02-09T11:00:59.516Z,101089.34
2018-02-09T11:03:27.842Z,101089.80
2018-02-09T11:05:56.974Z,101088.89
2018-02-09T11:08:25.306Z,101092.61
2018-02-09T11:10:54.442Z,101090.42
2018-02-09T11:13:28.295Z,101084.04
2018-02-09T11:15:56.652Z,101081.45
2018-02-09T11:18:25.413Z,101081.11
2018-02-09T11:20:53.730Z,101078.45
2018-02-09T11:23:22.076Z,101078.63
2018-02-09T11:25:50.415Z,101078.76
2018-02-09T11:28:18.782Z,101086.20
2018-02-09T11:30:47.146Z,101084.19
2018-02-09T11:33:15.498Z,101083.72
2018-02-09T11:35:43.830Z,101094.89
2018-02-09T11:38:12.161Z,101089.06
2018-02-09T11:40:40.524Z,101077.88
2018-02-09T11:43:08.856Z,101077.71
2018-02-09T11:45:38.089Z,101071.71
2018-02-09T11:48:06.410Z,101066.97
2018-02-09T11:50:35.526Z,101062.81
2018-02-09T11:53:03.878Z,101065.71
2018-02-09T11:55:32.234Z,101054.16
2018-02-09T11:58:00.540Z,101055.23
2018-02-09T12:00:29.047Z,101029.29
2018-02-09T12:02:57.382Z,101043.80
2018-02-09T12:05:25.680Z,101041.73
2018-02-09T12:07:54.038Z,101043.20
2018-02-09T12:10:22.382Z,101040.16
2018-02-09T12:12:50.716Z,101034.98
2018-02-09T12:15:19.046Z,101035.91
2018-02-09T12:17:47.422Z,101026.31
2018-02-09T12:20:16.889Z,101029.56
2018-02-09T12:22:46.585Z,101028.77
2018-02-09T12:25:16.044Z,101027.63
2018-02-09T12:27:44.374Z,101026.84
2018-02-09T12:30:13.506Z,101026.09
2018-02-09T12:32:41.822Z,101027.47
2018-02-09T12:35:10.140Z,101030.98
2018-02-09T12:37:38.486Z,101019.97
2018-02-09T12:40:06.809Z,101018.73
2018-02-09T12:42:35.177Z,101020.47
2018-02-09T12:45:03.543Z,101023.77
2018-02-09T12:47:31.872Z,101013.56
2018-02-09T12:50:00.219Z,101015.58
2018-02-09T12:52:28.546Z,101018.51
2018-02-09T12:54:56.871Z,101019.77
2018-02-09T12:57:25.967Z,101016.17
2018-02-09T12:59:54.309Z,101011.20
2018-02-09T13:02:22.671Z,101005.41
2018-02-09T13:04:50.975Z,101006.05
2018-02-09T13:07:20.122Z,101003.91
2018-02-09T13:09:48.961Z,101004.91
2018-02-09T13:15:28.817Z,101003.33
2018-02-09T13:17:57.925Z,100997.09
2018-02-09T13:20:26.313Z,100998.88
2018-02-09T13:23:12.309Z,100998.59
2018-02-09T13:25:40.727Z,100991.53
2018-02-09T13:28:09.081Z,100985.52
2018-02-09T13:30:37.439Z,100984.98
2018-02-09T13:33:23.557Z,100985.77
2018-02-09T13:35:51.919Z,100985.61
2018-02-09T13:38:20.287Z,100979.31
2018-02-09T13:40:48.635Z,100984.48
2018-02-09T13:43:17.773Z,100982.35
2018-02-09T13:45:46.083Z,100974.47
2018-02-09T13:48:14.391Z,100972.76
2018-02-09T13:50:43.506Z,100974.36
2018-02-09T13:53:11.829Z,100981.34
2018-02-09T13:55:40.167Z,100975.38
2018-02-09T13:58:08.496Z,100967.11
2018-02-09T14:00:36.855Z,100970.17
2018-02-09T14:03:05.196Z,100961.98
2018-02-09T14:05:33.589Z,100965.93
2018-02-09T14:08:01.945Z,100960.70
2018-02-09T14:10:30.308Z,100961.91
2018-02-09T14:12:59.445Z,100966.09
2018-02-09T14:15:27.807Z,100960.76
2018-02-09T14:17:56.133Z,100965.56
2018-02-09T14:20:24.495Z,100957.80
2018-02-09T14:22:52.862Z,100958.23
2018-02-09T14:25:21.168Z,100955.62
2018-02-09T14:27:49.511Z,100953.86
2018-02-09T14:30:17.848Z,100951.96
2018-02-09T14:32:47.540Z,100951.81
2018-02-09T14:35:15.893Z,100944.78
2018-02-09T14:37:44.252Z,100944.18
2018-02-09T14:40:12.574Z,100941.17
2018-02-09T14:42:40.913Z,100945.96
2018-02-09T14:45:09.289Z,100937.23
2018-02-09T14:47:37.624Z,100938.80
2018-02-09T14:50:06.492Z,100939.20
2018-02-09T14:52:35.587Z,100938.70
2018-02-09T14:55:03.921Z,100935.13
2018-02-09T14:57:32.273Z,100929.73
2018-02-09T15:00:00.685Z,100930.39
2018-02-09T15:02:29.056Z,100935.63
2018-02-09T15:04:57.364Z,100929.00
2018-02-09T15:07:25.677Z,100927.83
2018-02-09T15:09:54.132Z,100930.80
2018-02-09T15:12:22.455Z,100933.26
2018-02-09T15:14:50.824Z,100927.56
2018-02-09T15:17:19.179Z,100931.32
2018-02-09T15:19:47.764Z,100928.18
2018-02-09T15:22:17.226Z,100927.67
2018-02-09T15:24:45.555Z,100928.83
2018-02-09T15:27:13.904Z,100925.23
2018-02-09T15:29:42.261Z,100930.47
2018-02-09T15:32:12.453Z,100933.45
2018-02-09T15:34:40.851Z,100924.16
2018-02-09T15:37:09.217Z,100935.95
2018-02-09T15:39:37.544Z,100937.63
2018-02-09T15:42:07.262Z,100941.42
2018-02-09T15:44:36.356Z,100936.00
2018-02-09T15:47:04.740Z,100938.01
2018-02-09T15:49:33.812Z,100942.18
2018-02-09T15:52:02.141Z,100938.48
2018-02-09T15:54:30.512Z,100940.67
2018-02-09T15:56:58.854Z,100945.41
2018-02-09T15:59:28.376Z,100944.52
2018-02-09T16:01:59.433Z,100943.21
2018-02-09T16:04:28.689Z,100947.36
2018-02-09T16:06:57.935Z,100942.16
2018-02-09T16:09:26.297Z,100944.59
2018-02-09T16:11:54.647Z,100945.03
2018-02-09T16:14:24.443Z,100947.05
2018-02-09T16:16:52.750Z,100945.67
2018-02-09T16:19:21.883Z,100945.17
2018-02-09T16:21:50.232Z,100948.75
2018-02-09T16:24:18.881Z,100948.34
2018-02-09T16:26:48.371Z,100951.75
2018-02-09T16:29:16.689Z,100950.36
2018-02-09T16:31:45.077Z,100959.39
2018-02-09T16:34:13.432Z,100946.65
2018-02-09T16:36:43.133Z,100949.20
2018-02-09T16:39:11.503Z,100957.73
2018-02-09T16:41:40.484Z,100954.17
2018-02-09T16:44:10.183Z,100958.70
2018-02-09T16:46:38.546Z,100952.59
2018-02-09T16:49:06.908Z,100957.00
2018-02-09T16:51:35.228Z,100961.81
2018-02-09T16:54:03.576Z,100962.77
2018-02-09T16:56:31.927Z,100961.48
2018-02-09T16:59:00.290Z,100961.34
2018-02-09T17:01:28.639Z,100963.11
2018-02-09T17:03:57.022Z,100964.00
2018-02-09T17:06:25.392Z,100969.16
2018-02-09T17:08:53.744Z,100969.27
2018-02-09T17:11:22.077Z,100969.44
2018-02-09T17:13:51.955Z,100971.97
2018-02-09T17:16:20.324Z,100969.91
2018-02-09T17:18:48.723Z,100970.73
2018-02-09T17:21:17.050Z,100968.56
2018-02-09T17:23:45.437Z,100971.90
2018-02-09T17:26:13.850Z,100972.78
2018-02-09T17:28:42.202Z,100978.73
2018-02-09T17:31:10.630Z,100974.58
2018-02-09T17:33:41.215Z,100981.91
2018-02-09T17:36:09.619Z,100976.97
2018-02-09T17:38:37.972Z,100982.27
2018-02-09T17:41:06.384Z,100981.45
2018-02-09T17:43:35.003Z,100978.49
2018-02-09T17:46:03.443Z,100979.28
2018-02-09T17:48:31.799Z,100970.08
2018-02-09T17:51:00.182Z,100978.98
2018-02-09T17:53:28.549Z,100982.27
2018-02-09T17:55:56.869Z,100984.45
2018-02-09T17:58:25.214Z,100980.27
2018-02-09T18:00:53.542Z,100981.03
2018-02-09T18:03:21.923Z,100981.59
2018-02-09T18:05:51.009Z,100984.71
2018-02-09T18:08:20.146Z,100985.47
2018-02-09T18:10:48.462Z,100981.08
2018-02-09T18:13:17.283Z,100982.56
2018-02-09T18:15:45.628Z,100983.78
2018-02-09T18:18:14.758Z,100980.90
2018-02-09T18:20:43.073Z,100985.66
2018-02-09T18:23:12.199Z,100976.22
2018-02-09T18:25:40.616Z,100974.58
2018-02-09T18:28:09.807Z,100979.34
2018-02-09T18:30:38.180Z,100989.22
2018-02-09T18:33:07.263Z,100979.41
2018-02-09T18:35:36.414Z,100982.64
2018-02-09T18:38:04.755Z,100976.88
2018-02-09T18:40:33.100Z,100983.08
2018-02-09T18:43:01.471Z,100986.70
2018-02-09T18:45:31.467Z,100983.73
2018-02-09T18:48:01.212Z,100991.62
2018-02-09T18:50:29.546Z,100983.03
2018-02-09T18:52:57.882Z,100985.36
2018-02-09T18:55:26.781Z,100987.64
2018-02-09T18:57:56.061Z,100990.48
2018-02-09T19:00:25.241Z,100988.60
2018-02-09T19:02:54.159Z,100991.92
2018-02-09T19:05:24.606Z,100988.07
2018-02-09T19:07:53.846Z,100990.02
2018-02-09T19:10:24.047Z,100992.50
2018-02-09T19:12:53.289Z,100993.55
2018-02-09T19:15:22.416Z,100989.11
2018-02-09T19:17:50.755Z,100997.98
2018-02-09T19:20:19.163Z,101001.72
2018-02-09T19:22:47.442Z,101004.59
2018-02-09T19:25:15.925Z,101002.63
2018-02-09T19:27:44.266Z,101004.52
2018-02-09T19:30:12.721Z,101001.05
2018-02-09T19:32:41.093Z,101004.05
2018-02-09T19:35:09.401Z,101009.69
2018-02-09T19:37:37.774Z,101013.24
2018-02-09T19:40:06.324Z,101013.94
2018-02-09T19:42:34.650Z,101019.02
2018-02-09T19:45:04.522Z,101016.59
2018-02-09T19:47:33.862Z,101014.91
2018-02-09T19:50:05.064Z,101017.62
2018-02-09T19:52:34.262Z,101015.38
2018-02-09T19:55:03.462Z,101014.72
2018-02-09T19:57:33.594Z,101020.16
2018-02-09T20:00:02.514Z,101025.16
2018-02-09T20:02:30.865Z,101021.17
2018-02-09T20:04:59.233Z,101017.16
2018-02-09T20:07:28.294Z,101017.96
2018-02-09T20:09:57.484Z,101010.41
2018-02-09T20:12:26.538Z,101016.11
2018-02-09T20:14:54.875Z,101014.69
2018-02-09T20:17:23.222Z,101020.63
2018-02-09T20:19:51.749Z,101018.64
2018-02-09T20:22:20.338Z,101020.61
2018-02-09T20:24:49.468Z,101023.85
2018-02-09T20:27:18.626Z,101018.39
2018-02-09T20:29:47.017Z,101028.80
2018-02-09T20:32:16.187Z,101025.84
2018-02-09T20:34:51.513Z,101025.23
2018-02-09T20:37:20.605Z,101024.63
2018-02-09T20:39:49.805Z,101027.45
2018-02-09T20:42:18.937Z,101026.38
2018-02-09T20:44:47.329Z,101023.53
2018-02-09T20:47:15.679Z,101027.84
2018-02-09T20:49:44.157Z,101025.18
2018-02-09T20:52:12.610Z,101025.48
2018-02-09T20:54:41.005Z,101023.05
2018-02-09T20:57:10.120Z,101019.53
2018-02-09T20:59:38.503Z,101016.91
2018-02-09T21:02:07.770Z,101018.14
2018-02-09T21:04:36.189Z,101014.06
2018-02-09T21:07:04.951Z,101014.44
2018-02-09T21:09:33.331Z,101011.53
2018-02-09T21:12:02.050Z,101015.59
2018-02-09T21:14:30.417Z,101013.41
2018-02-09T21:16:58.777Z,101012.84
2018-02-09T21:19:27.167Z,101014.53
2018-02-09T21:21:57.893Z,101007.31
2018-02-09T21:24:26.269Z,101016.06
2018-02-09T21:26:54.652Z,101010.90
2018-02-09T21:29:22.971Z,101006.05
2018-02-09T21:31:52.895Z,101016.02
2018-02-09T21:34:21.322Z,101016.91
2018-02-09T21:36:49.665Z,101018.53
2018-02-09T21:39:18.994Z,101008.37
2018-02-09T21:41:47.322Z,101008.59
2018-02-09T21:44:16.810Z,101004.77
2018-02-09T21:46:45.159Z,101002.84
2018-02-09T21:49:14.346Z,101001.02
2018-02-09T21:51:42.737Z,101001.79
2018-02-09T21:54:11.118Z,101003.88
2018-02-09T21:56:39.455Z,100997.27
2018-02-09T21:59:07.825Z,101001.61
2018-02-09T22:01:36.151Z,101000.22
2018-02-09T22:04:04.492Z,100998.84
2018-02-09T22:06:33.691Z,101004.33
2018-02-09T22:09:02.908Z,101008.37
2018-02-09T22:11:31.224Z,101010.20
2018-02-09T22:13:59.593Z,101014.53
2018-02-09T22:16:27.960Z,101009.56
2018-02-09T22:18:56.304Z,101010.34
2018-02-09T22:21:24.636Z,101007.87
2018-02-09T22:23:53.005Z,101013.30
2018-02-09T22:26:21.392Z,101013.60
2018-02-09T22:28:49.716Z,101021.83
2018-02-09T22:31:18.079Z,101018.06
2018-02-09T22:33:46.437Z,101012.86
2018-02-09T22:36:14.752Z,101017.73
2018-02-09T22:38:43.118Z,101028.08
2018-02-09T22:41:11.448Z,101026.03
2018-02-09T22:43:39.833Z,101027.23
2018-02-09T22:46:08.162Z,101026.01
2018-02-09T22:48:36.681Z,101032.26
2018-02-09T22:51:05.012Z,101027.23
2018-02-09T22:53:33.346Z,101035.78
2018-02-09T22:56:02.488Z,101031.73
2018-02-09T22:58:30.876Z,101033.50
2018-02-09T23:00:59.227Z,101030.53
2018-02-09T23:03:27.594Z,101031.66
2018-02-09T23:05:56.669Z,101032.02
2018-02-09T23:08:25.040Z,101037.13
2018-02-09T23:10:53.370Z,101035.41
2018-02-09T23:13:21.740Z,101029.52
2018-02-09T23:15:50.077Z,101030.64
2018-02-09T23:18:18.436Z,101033.31
2018-02-09T23:20:46.778Z,101029.00
2018-02-09T23:23:15.161Z,101027.70
2018-02-09T23:25:43.531Z,101027.31
2018-02-09T23:28:11.850Z,101020.54
2018-02-09T23:30:40.207Z,101018.77
2018-02-09T23:33:08.552Z,101021.07
2018-02-09T23:35:37.676Z,101016.92
2018-02-09T23:38:06.052Z,101019.50
2018-02-09T23:40:35.182Z,101026.45
2018-02-09T23:43:03.520Z,101022.38
2018-02-09T23:45:31.874Z,101026.58
2018-02-09T23:48:00.966Z,101026.63
2018-02-09T23:50:30.108Z,101023.61
2018-02-09T23:52:58.577Z,101017.63
2018-02-09T23:55:26.896Z,101019.78
2018-02-09T23:57:55.267Z,101018.75
